createdAt,value
2018-02-17T00:02:15.525Z,80.82
2018-02-17T00:08:20.435Z,81.17
2018-02-17T00:14:25.019Z,80.41
2018-02-17T00:20:29.579Z,80.99
2018-02-17T00:26:34.101Z,81.33
2018-02-17T00:32:38.643Z,81.72
2018-02-17T00:38:43.155Z,82.90
2018-02-17T00:44:47.646Z,82.14
2018-02-17T00:50:52.376Z,81.87
2018-02-17T00:56:56.862Z,82.41
2018-02-17T01:03:01.356Z,81.52
2018-02-17T01:09:05.875Z,82.99
2018-02-17T01:15:10.403Z,82.42
2018-02-17T01:21:14.994Z,82.46
2018-02-17T01:27:20.020Z,83.34
2018-02-17T01:33:25.195Z,83.40
2018-02-17T01:39:29.692Z,83.56
2018-02-17T01:45:35.687Z,83.64
2018-02-17T01:51:40.219Z,83.30
2018-02-17T01:57:45.638Z,82.95
2018-02-17T02:03:50.202Z,82.63
2018-02-17T02:09:54.800Z,83.02
2018-02-17T02:15:59.317Z,83.31
2018-02-17T02:22:03.811Z,83.25
2018-02-17T02:28:08.333Z,83.28
2018-02-17T02:34:13.176Z,83.25
2018-02-17T02:40:17.774Z,83.31
2018-02-17T02:46:22.692Z,83.90
2018-02-17T02:52:27.359Z,83.87
2018-02-17T02:58:31.890Z,83.92
2018-02-17T03:04:36.540Z,83.95
2018-02-17T03:10:41.032Z,84.50
2018-02-17T03:16:45.529Z,83.96
2018-02-17T03:22:50.300Z,84.18
2018-02-17T03:28:55.656Z,84.26
2018-02-17T03:35:00.303Z,84.23
2018-02-17T03:41:04.787Z,83.88
2018-02-17T03:47:09.353Z,84.04
2018-02-17T03:53:13.854Z,84.43
2018-02-17T03:59:19.177Z,84.30
2018-02-17T04:05:24.103Z,84.87
2018-02-17T04:11:28.627Z,84.61
2018-02-17T04:17:33.961Z,84.35
2018-02-17T04:23:38.694Z,84.49
2018-02-17T04:29:43.234Z,85.12
2018-02-17T04:35:47.882Z,84.53
2018-02-17T04:41:58.731Z,84.55
2018-02-17T04:48:08.866Z,84.33
2018-02-17T04:54:19.047Z,84.11
2018-02-17T05:00:23.945Z,84.59
2018-02-17T05:06:41.218Z,85.19
2018-02-17T05:12:46.731Z,85.51
2018-02-17T05:19:01.283Z,84.33
2018-02-17T05:25:10.667Z,84.31
2018-02-17T05:31:16.176Z,84.33
2018-02-17T05:37:21.743Z,84.67
2018-02-17T05:43:26.396Z,84.74
2018-02-17T05:49:32.404Z,84.21
2018-02-17T05:55:37.304Z,84.66
2018-02-17T06:01:42.205Z,84.31
2018-02-17T06:07:46.810Z,84.30
2018-02-17T06:13:52.595Z,84.34
2018-02-17T06:19:57.318Z,84.23
2018-02-17T06:26:02.220Z,84.14
2018-02-17T06:32:06.751Z,84.38
2018-02-17T06:38:11.430Z,84.75
2018-02-17T06:44:15.907Z,86.16
2018-02-17T06:50:20.492Z,85.67
2018-02-17T06:56:25.192Z,85.14
2018-02-17T07:02:30.511Z,84.32
2018-02-17T07:08:35.023Z,84.46
2018-02-17T07:14:39.523Z,84.17
2018-02-17T07:20:44.787Z,83.78
2018-02-17T07:26:49.642Z,83.49
2018-02-17T07:32:54.242Z,83.77
2018-02-17T07:38:59.551Z,83.90
2018-02-17T07:45:04.125Z,83.50
2018-02-17T07:51:08.657Z,83.51
2018-02-17T07:57:13.886Z,83.41
2018-02-17T08:03:18.404Z,83.06
2018-02-17T08:09:23.940Z,82.57
2018-02-17T08:15:28.588Z,82.24
2018-02-17T08:21:33.140Z,82.34
2018-02-17T08:27:37.675Z,81.09
2018-02-17T08:33:42.910Z,80.70
2018-02-17T08:39:47.579Z,80.33
2018-02-17T08:45:52.100Z,80.61
2018-02-17T08:51:56.634Z,80.67
2018-02-17T08:58:01.098Z,80.25
2018-02-17T09:04:05.667Z,79.65
2018-02-17T09:10:10.133Z,79.08
2018-02-17T09:16:15.614Z,78.67
2018-02-17T09:22:22.090Z,78.46
2018-02-17T09:28:26.701Z,78.36
2018-02-17T09:34:31.193Z,77.95
2018-02-17T09:40:35.862Z,77.56
2018-02-17T09:46:40.404Z,77.77
2018-02-17T09:52:44.887Z,77.24
2018-02-17T09:58:49.724Z,76.33
2018-02-17T10:04:54.643Z,75.54
2018-02-17T10:11:00.175Z,75.21
2018-02-17T10:17:04.897Z,74.51
2018-02-17T10:23:10.152Z,75.16
2018-02-17T10:29:14.680Z,73.17
2018-02-17T10:35:19.680Z,72.53
2018-02-17T10:41:24.179Z,71.93
2018-02-17T10:47:28.765Z,71.76
2018-02-17T10:53:33.249Z,72.19
2018-02-17T10:59:37.736Z,71.70
2018-02-17T11:05:42.242Z,71.52
2018-02-17T11:11:46.700Z,71.46
2018-02-17T11:17:51.803Z,71.99
2018-02-17T11:23:56.420Z,72.56
2018-02-17T11:30:00.921Z,72.31
2018-02-17T11:36:05.448Z,71.74
2018-02-17T11:42:10.012Z,71.24
2018-02-17T11:48:15.301Z,70.83
2018-02-17T11:54:20.062Z,69.16
2018-02-17T12:00:24.935Z,68.93
2018-02-17T12:06:29.428Z,68.64
2018-02-17T12:12:33.992Z,68.53
2018-02-17T12:18:38.524Z,67.87
2018-02-17T12:24:43.124Z,67.90
2018-02-17T12:30:48.450Z,67.82
2018-02-17T12:36:53.153Z,67.69
2018-02-17T12:42:57.827Z,67.36
2018-02-17T12:49:02.349Z,67.10
2018-02-17T12:55:07.003Z,67.79
2018-02-17T13:01:12.329Z,68.03
2018-02-17T13:07:16.803Z,67.26
2018-02-17T13:13:21.319Z,67.08
2018-02-17T13:19:25.796Z,67.54
2018-02-17T13:25:30.598Z,67.55
2018-02-17T13:31:35.163Z,68.70
2018-02-17T13:37:39.691Z,68.56
2018-02-17T13:43:44.179Z,69.64
2018-02-17T13:49:48.708Z,68.71
2018-02-17T13:55:53.468Z,68.63
2018-02-17T14:01:58.072Z,69.10
2018-02-17T14:08:02.691Z,70.27
2018-02-17T14:14:07.167Z,69.86
2018-02-17T14:20:11.655Z,69.09
2018-02-17T14:26:16.220Z,69.45
2018-02-17T14:32:20.834Z,69.12
2018-02-17T14:38:26.095Z,69.27
2018-02-17T14:44:30.667Z,70.20
2018-02-17T14:50:35.196Z,69.57
2018-02-17T14:56:39.719Z,70.81
2018-02-17T15:02:44.220Z,69.76
2018-02-17T15:08:49.843Z,70.28
2018-02-17T15:14:54.619Z,70.22
2018-02-17T15:20:59.140Z,70.71
2018-02-17T15:27:04.368Z,71.07
2018-02-17T15:33:08.895Z,71.37
2018-02-17T15:39:13.504Z,71.63
2018-02-17T15:45:18.014Z,71.83
2018-02-17T16:04:24.090Z,74.72
2018-02-17T16:10:28.796Z,75.52
2018-02-17T16:16:33.318Z,76.49
2018-02-17T16:22:37.827Z,76.95
2018-02-17T16:28:42.430Z,77.56
2018-02-17T16:34:47.832Z,77.85
2018-02-17T16:40:52.498Z,77.31
2018-02-17T16:46:57.780Z,76.87
2018-02-17T16:53:02.354Z,76.67
2018-02-17T16:59:06.855Z,76.95
2018-02-17T17:05:11.358Z,76.22
2018-02-17T17:11:16.161Z,75.30
2018-02-17T17:17:20.796Z,75.15
2018-02-17T17:23:25.470Z,75.43
2018-02-17T17:29:30.181Z,75.55
2018-02-17T17:35:34.942Z,75.72
2018-02-17T17:41:39.393Z,75.67
2018-02-17T17:47:43.916Z,75.92
2018-02-17T17:53:49.162Z,75.47
2018-02-17T17:59:53.739Z,75.26
2018-02-17T18:05:58.218Z,75.27
2018-02-17T18:12:02.770Z,75.36
2018-02-17T18:18:08.148Z,75.30
2018-02-17T18:24:12.680Z,75.40
2018-02-17T18:30:17.180Z,75.27
2018-02-17T18:36:22.461Z,75.43
2018-02-17T18:42:26.951Z,75.25
2018-02-17T18:48:32.187Z,74.80
2018-02-17T18:54:36.677Z,74.69
2018-02-17T19:00:41.149Z,75.06
2018-02-17T19:06:45.870Z,75.24
2018-02-17T19:12:50.888Z,75.66
2018-02-17T19:18:55.404Z,75.32
2018-02-17T19:25:00.750Z,75.31
2018-02-17T19:31:05.230Z,75.09
2018-02-17T19:37:09.709Z,75.04
2018-02-17T19:43:14.439Z,74.78
2018-02-17T19:49:19.358Z,74.80
2018-02-17T19:55:24.163Z,74.67
2018-02-17T20:01:28.667Z,74.77
2018-02-17T20:07:33.149Z,74.70
2018-02-17T20:13:37.716Z,74.91
2018-02-17T20:19:42.949Z,75.26
2018-02-17T20:25:47.416Z,75.03
2018-02-17T20:31:52.743Z,75.14
2018-02-17T20:37:57.269Z,74.91
2018-02-17T20:44:01.699Z,74.47
2018-02-17T20:50:06.265Z,74.45
2018-02-17T20:56:10.906Z,74.83
2018-02-17T21:02:15.396Z,74.45
2018-02-17T21:08:20.199Z,73.65
2018-02-17T21:14:24.993Z,72.24
2018-02-17T21:20:29.498Z,70.60
2018-02-17T21:26:34.001Z,70.57
2018-02-17T21:32:38.520Z,70.04
2018-02-17T21:38:43.029Z,72.22
2018-02-17T21:44:48.418Z,73.87
2018-02-17T21:50:53.892Z,73.07
2018-02-17T21:56:58.378Z,74.00
2018-02-17T22:03:03.086Z,73.53
2018-02-17T22:09:07.693Z,73.38
2018-02-17T22:15:12.231Z,73.31
2018-02-17T22:21:16.728Z,72.93
2018-02-17T22:27:21.683Z,73.34
2018-02-17T22:33:26.213Z,73.92
2018-02-17T22:39:30.682Z,74.52
2018-02-17T22:45:35.984Z,74.70
2018-02-17T22:51:41.302Z,75.12
2018-02-17T22:57:46.642Z,75.04
2018-02-17T23:03:51.132Z,74.84
2018-02-17T23:09:55.624Z,74.50
2018-02-17T23:16:00.267Z,74.69
2018-02-17T23:22:04.765Z,74.69
2018-02-17T23:28:10.052Z,75.12
2018-02-17T23:34:14.569Z,75.49
2018-02-17T23:40:19.035Z,75.98
2018-02-17T23:46:24.324Z,75.96
2018-02-17T23:52:29.600Z,76.26
2018-02-17T23:58:34.115Z,76.49
